Lewisboro, New York
Current Conditions -  °F | °C
As of 9:53 PM on Saturday 22 Nov 2014 (Local Time) from KDXR Reporting Station
Few Clouds Few Clouds  
Wind Chill: 35°   Ceiling: Unl
Heat Index: 40°   Visibility: 10mi
Dew Point: 16°   Wind: 7mph
Humidity: 38%   Direction: 260°W
Pressure: 30.18"   Gusts: NA
Location:  41.2554°N, 73.5385°W
Report Text: KDXR 230253Z AUTO 26006KT 10SM FEW060 04/M09 A3018 RMK AO2 SLP223 T00441089 56014
Loading
Personal Weather Stations






























Interactive Weather Map New forecast layout! Learn more

10-Day Weather Forecast

Advertisements
Track Severe Weather on mobile